Time;durP1;ratioP1;P1;durP2;ratioP2;P2;SDS_P1;SDS_P2;PMS_P1;PMS_P2;Temp;Humidity;BMP_temperature;BMP_pressure;BME280_temperature;BME280_humidity;BME280_pressure;Samples;Min_cycle;Max_cycle;Signal;HPM_P1;HPM_P2
2021/03/18 00:01:41;;;;;;;11.02;3.35;;;20.70;91.10;;;;;;5051419;28;20032;-68
2021/03/18 00:04:15;;;;;;;10.90;3.30;;;20.80;90.90;;;;;;5059401;28;20021;-68
2021/03/18 00:06:45;;;;;;;14.90;3.47;;;21.00;90.60;;;;;;5052419;28;20025;-68
2021/03/18 00:09:15;;;;;;;17.17;3.85;;;21.00;90.70;;;;;;5051653;28;20033;-70
2021/03/18 00:11:46;;;;;;;19.88;4.90;;;20.80;90.90;;;;;;5051845;28;20028;-69
2021/03/18 00:14:18;;;;;;;12.77;2.50;;;20.70;91.10;;;;;;5053221;28;20436;-69
2021/03/18 00:16:45;;;;;;;12.60;2.35;;;20.60;91.20;;;;;;5048078;28;20052;-69
2021/03/18 00:19:13;;;;;;;16.67;4.30;;;20.60;91.10;;;;;;5052264;28;20538;-69
2021/03/18 00:21:41;;;;;;;7.85;2.17;;;20.40;91.60;;;;;;5050227;28;20038;-70
2021/03/18 00:24:10;;;;;;;17.30;2.85;;;20.30;92.00;;;;;;5053323;28;20491;-69
2021/03/18 00:26:37;;;;;;;16.55;3.10;;;20.20;92.20;;;;;;5049145;28;20029;-69
2021/03/18 00:29:06;;;;;;;16.73;2.90;;;20.20;92.70;;;;;;5048468;28;20114;-70
2021/03/18 00:31:35;;;;;;;8.18;1.90;;;20.20;92.80;;;;;;5048607;28;20068;-69
2021/03/18 00:34:04;;;;;;;10.57;2.65;;;20.30;92.60;;;;;;5051007;28;20029;-69
2021/03/18 00:36:32;;;;;;;13.55;2.88;;;20.50;92.50;;;;;;5047940;28;20083;-68
2021/03/18 00:39:08;;;;;;;14.27;2.65;;;20.50;92.10;;;;;;5051916;28;20533;-69
2021/03/18 00:41:36;;;;;;;13.88;2.88;;;20.60;91.80;;;;;;5052844;28;20119;-69
2021/03/18 00:44:05;;;;;;;13.45;3.13;;;20.60;91.70;;;;;;5056142;28;20048;-71
2021/03/18 00:46:33;;;;;;;9.73;2.33;;;20.60;92.00;;;;;;5055756;28;20021;-70
2021/03/18 00:49:00;;;;;;;9.63;3.33;;;20.60;91.80;;;;;;5060911;28;20028;-69
2021/03/18 00:51:27;;;;;;;8.75;2.38;;;20.70;91.70;;;;;;5050046;28;20039;-69
2021/03/18 00:53:55;;;;;;;8.30;2.15;;;20.80;91.50;;;;;;5053608;28;20029;-69
2021/03/18 00:56:23;;;;;;;12.73;1.70;;;20.90;91.40;;;;;;5055321;28;20036;-69
2021/03/18 00:58:51;;;;;;;12.48;2.55;;;20.90;91.30;;;;;;5048821;28;20039;-69
2021/03/18 01:01:22;;;;;;;11.65;3.17;;;20.80;91.40;;;;;;5050116;28;20033;-69
2021/03/18 01:03:49;;;;;;;13.93;3.08;;;20.80;91.40;;;;;;5054134;28;20024;-68
2021/03/18 01:06:28;;;;;;;11.13;3.05;;;20.70;91.60;;;;;;5047409;28;21206;-69
2021/03/18 01:08:59;;;;;;;13.27;2.10;;;20.70;91.70;;;;;;5050713;28;20027;-68
2021/03/18 01:11:34;;;;;;;14.77;2.65;;;20.70;91.50;;;;;;5049558;28;20127;-70
2021/03/18 01:14:05;;;;;;;8.80;2.08;;;20.70;91.60;;;;;;5051233;28;20063;-69
2021/03/18 01:16:49;;;;;;;12.50;2.55;;;20.80;91.70;;;;;;5051630;28;20048;-73
2021/03/18 01:19:18;;;;;;;14.73;3.42;;;20.60;91.80;;;;;;5049316;28;20045;-69
2021/03/18 01:21:51;;;;;;;11.70;2.17;;;20.50;92.20;;;;;;5034444;28;20063;-69
2021/03/18 01:24:19;;;;;;;13.93;2.30;;;20.40;92.60;;;;;;5053962;28;20020;-70
2021/03/18 01:26:47;;;;;;;11.90;3.00;;;20.40;92.60;;;;;;5047119;28;20479;-70
2021/03/18 01:29:14;;;;;;;11.43;3.60;;;20.50;92.50;;;;;;5047662;28;20051;-69
2021/03/18 01:31:43;;;;;;;11.95;3.28;;;20.50;92.40;;;;;;5049570;28;20040;-71
2021/03/18 01:34:11;;;;;;;13.82;4.38;;;20.40;92.70;;;;;;5053728;28;20054;-71
2021/03/18 01:36:40;;;;;;;10.82;2.97;;;20.30;93.20;;;;;;5049604;28;20037;-72
2021/03/18 01:39:08;;;;;;;11.20;2.72;;;20.30;93.20;;;;;;5049875;28;20032;-72
2021/03/18 01:41:36;;;;;;;10.05;2.85;;;20.30;93.30;;;;;;5047294;28;20037;-73
2021/03/18 01:44:04;;;;;;;13.60;4.40;;;20.40;93.00;;;;;;5053879;28;20102;-71
2021/03/18 01:46:33;;;;;;;9.98;4.28;;;20.40;92.90;;;;;;5049867;28;20100;-70
2021/03/18 01:49:00;;;;;;;12.30;3.28;;;20.40;92.80;;;;;;5053193;28;20079;-71
2021/03/18 01:51:28;;;;;;;10.57;2.80;;;20.50;92.80;;;;;;5047853;28;20535;-69
2021/03/18 01:53:55;;;;;;;10.27;3.05;;;20.40;93.00;;;;;;5050164;28;20505;-69
2021/03/18 01:56:23;;;;;;;10.77;3.83;;;20.40;93.10;;;;;;5057039;28;20040;-70
2021/03/18 01:58:51;;;;;;;11.20;4.70;;;20.30;93.10;;;;;;5056641;28;20017;-70
2021/03/18 02:01:18;;;;;;;10.80;3.30;;;20.40;93.10;;;;;;5053852;28;20100;-69
2021/03/18 02:03:47;;;;;;;11.95;2.10;;;20.30;93.10;;;;;;5051872;28;20017;-69
2021/03/18 02:06:14;;;;;;;8.90;1.73;;;20.30;93.30;;;;;;5053594;28;20098;-70
2021/03/18 02:08:41;;;;;;;7.70;2.13;;;20.30;93.30;;;;;;5052678;28;20024;-70
2021/03/18 02:11:10;;;;;;;8.48;1.70;;;20.50;93.30;;;;;;5049272;28;20021;-68
2021/03/18 02:13:37;;;;;;;12.13;2.45;;;20.60;92.90;;;;;;5052947;28;20033;-70
2021/03/18 02:16:11;;;;;;;9.68;2.10;;;20.70;92.40;;;;;;5056718;28;20044;-69
2021/03/18 02:18:42;;;;;;;8.25;1.75;;;20.70;92.50;;;;;;5049903;28;20130;-69
2021/03/18 02:21:33;;;;;;;16.35;3.90;;;20.80;92.30;;;;;;5049582;28;20049;-69
2021/03/18 02:24:13;;;;;;;7.28;1.85;;;20.80;92.40;;;;;;5048334;28;20119;-69
2021/03/18 02:26:43;;;;;;;10.75;2.28;;;20.90;92.20;;;;;;5053490;28;20119;-66
2021/03/18 02:29:47;;;;;;;8.93;2.20;;;20.90;92.20;;;;;;5055429;28;20098;-69
2021/03/18 02:32:44;;;;;;;14.40;1.98;;;20.80;92.20;;;;;;5051800;28;20236;-70
2021/03/18 02:35:54;;;;;;;11.57;1.65;;;20.80;92.20;;;;;;5049064;28;20047;-69
2021/03/18 02:38:30;;;;;;;6.82;1.00;;;20.90;92.10;;;;;;5033343;28;20492;-69
2021/03/18 02:41:14;;;;;;;5.50;1.58;;;20.80;92.00;;;;;;5054145;28;20025;-70
2021/03/18 02:44:31;;;;;;;3.67;1.02;;;20.80;92.30;;;;;;5056095;28;20617;-69
2021/03/18 02:47:05;;;;;;;5.93;1.13;;;20.80;92.20;;;;;;4957260;28;20117;-71
2021/03/18 02:49:41;;;;;;;6.10;0.70;;;20.80;92.60;;;;;;4958508;28;20042;-68
2021/03/18 02:52:09;;;;;;;6.28;0.88;;;20.80;92.60;;;;;;5013528;28;20040;-69
2021/03/18 02:54:39;;;;;;;3.05;0.70;;;20.80;92.20;;;;;;5052112;28;20036;-68
2021/03/18 02:57:10;;;;;;;3.47;1.02;;;20.80;92.00;;;;;;5053087;28;20033;-69
2021/03/18 02:59:40;;;;;;;7.20;1.30;;;20.90;91.90;;;;;;5050905;28;20020;-70
2021/03/18 03:02:14;;;;;;;2.47;0.60;;;20.90;91.90;;;;;;5053639;28;20483;-69
2021/03/18 03:04:42;;;;;;;2.80;0.80;;;21.00;91.70;;;;;;5052017;28;20020;-70
2021/03/18 03:07:13;;;;;;;2.33;0.77;;;21.00;92.20;;;;;;5050363;28;20048;-70
2021/03/18 03:09:45;;;;;;;5.43;1.00;;;21.00;92.00;;;;;;5053195;28;20059;-71
2021/03/18 03:12:14;;;;;;;1.80;0.43;;;21.00;91.80;;;;;;5049066;28;20107;-71
2021/03/18 03:14:45;;;;;;;7.18;1.40;;;21.10;91.70;;;;;;5049834;28;20372;-71
2021/03/18 03:17:16;;;;;;;2.40;0.60;;;21.10;91.40;;;;;;5054122;28;20028;-69
2021/03/18 03:19:44;;;;;;;1.60;0.60;;;21.20;91.50;;;;;;5054672;28;20954;-73
2021/03/18 03:22:14;;;;;;;4.38;1.10;;;21.10;91.70;;;;;;5052034;28;20486;-72
2021/03/18 03:24:47;;;;;;;7.95;1.15;;;21.20;91.80;;;;;;5052626;28;20021;-72
2021/03/18 03:27:15;;;;;;;2.85;0.70;;;21.10;91.60;;;;;;5053444;28;20025;-71
2021/03/18 03:29:45;;;;;;;4.22;0.70;;;21.10;91.60;;;;;;5052823;28;20048;-71
2021/03/18 03:32:14;;;;;;;5.82;1.23;;;21.10;91.50;;;;;;5068941;28;20050;-71
2021/03/18 03:34:42;;;;;;;3.70;0.80;;;21.10;91.40;;;;;;5075430;28;20046;-73
2021/03/18 03:37:11;;;;;;;2.75;0.63;;;21.10;91.50;;;;;;5075766;28;20042;-71
2021/03/18 03:39:39;;;;;;;4.93;1.27;;;21.00;91.30;;;;;;5073771;28;20289;-72
2021/03/18 03:42:11;;;;;;;6.07;1.00;;;21.00;91.40;;;;;;5070567;28;20123;-71
2021/03/18 03:44:42;;;;;;;4.65;0.65;;;20.90;91.20;;;;;;5072595;28;20024;-70
2021/03/18 03:47:11;;;;;;;6.18;1.73;;;20.90;91.20;;;;;;5077471;28;20052;-71
2021/03/18 03:49:39;;;;;;;4.85;0.98;;;20.90;91.50;;;;;;5073761;28;20062;-72
2021/03/18 03:52:20;;;;;;;3.47;0.70;;;20.90;91.50;;;;;;5076469;28;20033;-72
2021/03/18 03:55:01;;;;;;;5.88;1.17;;;21.00;91.40;;;;;;5073992;28;20058;-71
2021/03/18 03:57:40;;;;;;;4.93;1.02;;;21.00;91.40;;;;;;5072749;28;20055;-72
2021/03/18 04:00:09;;;;;;;8.02;1.30;;;21.10;91.40;;;;;;5074104;28;20029;-70
2021/03/18 04:02:37;;;;;;;5.70;0.73;;;21.20;91.40;;;;;;5069984;28;20029;-71
2021/03/18 04:05:07;;;;;;;4.35;1.42;;;21.30;91.30;;;;;;5079638;28;20039;-70
2021/03/18 04:07:37;;;;;;;8.07;0.98;;;21.20;91.20;;;;;;5074774;28;20033;-71
2021/03/18 04:10:06;;;;;;;6.35;1.08;;;21.30;91.00;;;;;;5068998;28;20621;-71
2021/03/18 04:12:39;;;;;;;5.05;1.05;;;21.30;90.90;;;;;;5078859;28;20112;-71
2021/03/18 04:15:13;;;;;;;8.15;1.02;;;21.20;91.10;;;;;;5073710;28;20519;-72
2021/03/18 04:17:50;;;;;;;4.60;0.80;;;21.20;91.10;;;;;;5071935;28;20028;-71
2021/03/18 04:20:19;;;;;;;5.78;1.23;;;21.20;90.90;;;;;;5073287;28;20028;-69
2021/03/18 04:22:50;;;;;;;5.85;0.98;;;21.10;90.90;;;;;;5073794;28;20432;-71
2021/03/18 04:25:19;;;;;;;4.13;1.48;;;21.00;90.90;;;;;;5070679;28;20093;-70
2021/03/18 04:27:48;;;;;;;8.43;1.70;;;21.10;91.10;;;;;;5070703;28;20025;-71
2021/03/18 04:30:16;;;;;;;3.05;0.63;;;21.10;91.20;;;;;;5057484;28;20068;-70
2021/03/18 04:32:46;;;;;;;7.93;1.50;;;21.10;91.20;;;;;;5052580;28;20487;-70
2021/03/18 04:35:15;;;;;;;3.85;1.08;;;21.10;91.10;;;;;;5054402;28;20802;-71
2021/03/18 04:37:43;;;;;;;4.78;0.90;;;21.10;91.00;;;;;;5050606;28;20043;-71
2021/03/18 04:40:14;;;;;;;3.53;0.90;;;21.10;91.20;;;;;;5052183;28;20059;-69
2021/03/18 04:42:41;;;;;;;8.02;2.10;;;21.10;91.40;;;;;;5053192;28;20090;-71
2021/03/18 04:45:10;;;;;;;7.20;1.98;;;21.10;91.40;;;;;;5053029;28;20194;-70
2021/03/18 04:47:43;;;;;;;5.35;1.33;;;21.00;91.50;;;;;;5032425;28;20024;-69
2021/03/18 04:50:17;;;;;;;8.35;1.88;;;21.10;91.70;;;;;;5052440;28;20422;-71
2021/03/18 04:52:45;;;;;;;5.38;1.65;;;20.90;91.90;;;;;;5049657;28;20028;-68
2021/03/18 04:55:13;;;;;;;5.72;1.38;;;21.00;91.80;;;;;;5052799;28;20055;-68
2021/03/18 04:57:58;;;;;;;7.18;1.55;;;21.00;91.90;;;;;;5048571;28;20037;-71
2021/03/18 05:00:27;;;;;;;5.80;1.77;;;20.90;91.70;;;;;;5050128;28;20028;-72
2021/03/18 05:03:01;;;;;;;6.50;1.23;;;20.90;91.50;;;;;;5049423;28;20277;-68
2021/03/18 05:05:31;;;;;;;3.30;1.50;;;20.90;91.70;;;;;;5048660;28;20411;-69
2021/03/18 05:08:00;;;;;;;3.97;1.58;;;20.80;92.10;;;;;;5052638;28;20056;-71
2021/03/18 05:10:33;;;;;;;6.53;1.15;;;20.80;92.30;;;;;;5053374;28;20021;-70
2021/03/18 05:13:05;;;;;;;2.97;0.90;;;20.90;92.10;;;;;;5051603;28;20032;-69
2021/03/18 05:15:34;;;;;;;7.07;1.48;;;20.80;92.30;;;;;;5052698;28;20063;-69
2021/03/18 05:18:09;;;;;;;3.60;0.80;;;20.70;92.30;;;;;;5051101;28;20024;-71
2021/03/18 05:20:36;;;;;;;3.55;0.80;;;20.60;92.80;;;;;;5050338;28;20040;-70
2021/03/18 05:23:05;;;;;;;3.25;0.55;;;20.60;92.70;;;;;;5048587;28;20028;-70
2021/03/18 05:25:34;;;;;;;2.05;0.52;;;20.60;92.50;;;;;;5049775;28;20017;-68
2021/03/18 05:28:02;;;;;;;4.35;1.40;;;20.60;92.50;;;;;;5051155;28;20551;-70
2021/03/18 05:30:31;;;;;;;3.83;0.70;;;20.60;92.80;;;;;;5050203;28;20506;-68
2021/03/18 05:33:00;;;;;;;5.05;0.73;;;20.50;93.00;;;;;;5048424;28;20037;-69
2021/03/18 05:35:28;;;;;;;4.45;1.33;;;20.50;92.90;;;;;;5050441;28;20031;-70
2021/03/18 05:37:55;;;;;;;3.72;0.70;;;20.50;92.90;;;;;;5049384;28;20036;-70
2021/03/18 05:40:23;;;;;;;3.25;0.82;;;20.40;93.20;;;;;;5050809;28;20910;-70
2021/03/18 05:42:52;;;;;;;2.55;1.52;;;20.40;93.20;;;;;;5050711;28;20078;-70
2021/03/18 05:45:20;;;;;;;4.90;1.30;;;20.40;92.90;;;;;;5049375;28;20028;-70
2021/03/18 05:47:50;;;;;;;5.45;1.10;;;20.30;92.70;;;;;;5051726;28;20967;-71
2021/03/18 05:50:20;;;;;;;3.45;1.30;;;20.20;93.30;;;;;;5052091;28;20676;-69
2021/03/18 05:52:50;;;;;;;2.22;0.80;;;20.20;93.50;;;;;;5049864;28;20017;-72
2021/03/18 05:55:21;;;;;;;3.75;1.20;;;20.10;93.30;;;;;;5051166;28;20448;-68
2021/03/18 05:57:52;;;;;;;2.97;0.80;;;20.10;93.40;;;;;;5048188;28;20041;-70
2021/03/18 06:00:21;;;;;;;6.28;1.80;;;20.20;93.30;;;;;;5052929;28;20029;-72
2021/03/18 06:02:48;;;;;;;4.15;1.30;;;20.10;93.20;;;;;;5050314;28;20025;-70
2021/03/18 06:05:17;;;;;;;3.20;1.23;;;20.20;93.30;;;;;;5053816;28;20056;-72
2021/03/18 06:07:48;;;;;;;3.58;1.33;;;20.20;93.40;;;;;;5050982;28;20021;-73
2021/03/18 06:10:23;;;;;;;5.10;0.88;;;20.20;93.10;;;;;;5054294;28;20029;-72
2021/03/18 06:12:52;;;;;;;5.27;1.47;;;20.30;92.80;;;;;;5052019;28;20039;-71
2021/03/18 06:15:22;;;;;;;2.75;0.80;;;20.30;92.70;;;;;;5055646;28;20293;-70
2021/03/18 06:17:52;;;;;;;3.80;1.48;;;20.30;92.90;;;;;;5054313;28;20492;-69
2021/03/18 06:20:23;;;;;;;5.88;1.10;;;20.20;93.30;;;;;;5053433;28;20429;-70
2021/03/18 06:22:52;;;;;;;4.35;1.15;;;20.10;93.00;;;;;;5047438;28;20024;-71
2021/03/18 06:25:34;;;;;;;2.85;1.00;;;20.20;93.10;;;;;;5050403;28;20029;-71
2021/03/18 06:28:19;;;;;;;3.65;0.88;;;20.10;93.40;;;;;;5050549;28;20494;-72
2021/03/18 06:31:09;;;;;;;1.55;0.60;;;20.00;93.20;;;;;;5051253;28;20045;-71
2021/03/18 06:33:45;;;;;;;4.82;1.17;;;20.00;93.10;;;;;;5048849;28;20020;-70
2021/03/18 06:36:28;;;;;;;4.03;1.45;;;20.00;93.20;;;;;;5051872;28;20082;-71
2021/03/18 06:39:11;;;;;;;2.15;0.60;;;20.00;93.10;;;;;;5050087;28;20033;-69
2021/03/18 06:41:42;;;;;;;4.80;1.08;;;20.00;93.30;;;;;;5052486;28;20564;-70
2021/03/18 06:44:24;;;;;;;4.93;1.00;;;19.90;93.40;;;;;;5054049;28;20024;-70
2021/03/18 06:46:54;;;;;;;2.55;1.05;;;19.80;93.80;;;;;;5052128;28;20479;-70
2021/03/18 06:49:23;;;;;;;3.17;1.00;;;19.80;93.40;;;;;;5056468;28;20028;-69
2021/03/18 06:52:09;;;;;;;4.40;1.65;;;19.90;93.30;;;;;;5058965;28;20033;-70
2021/03/18 06:54:38;;;;;;;4.32;0.70;;;19.90;93.30;;;;;;5054175;28;20025;-69
2021/03/18 06:57:06;;;;;;;4.22;1.05;;;19.80;93.20;;;;;;5054169;28;20060;-69
2021/03/18 06:59:36;;;;;;;2.80;0.85;;;19.90;93.20;;;;;;5052218;28;20052;-70
2021/03/18 07:02:20;;;;;;;4.53;1.20;;;19.90;93.20;;;;;;5055005;28;20344;-69
2021/03/18 07:04:55;;;;;;;5.20;1.17;;;19.90;93.30;;;;;;5050868;28;20044;-70
2021/03/18 07:07:25;;;;;;;3.08;0.80;;;19.80;93.40;;;;;;5059167;28;20379;-71
2021/03/18 07:09:57;;;;;;;3.42;1.08;;;19.80;93.40;;;;;;5050007;28;20025;-69
2021/03/18 07:12:32;;;;;;;2.33;1.17;;;19.70;93.10;;;;;;5035854;28;20025;-70
2021/03/18 07:15:01;;;;;;;3.00;1.00;;;19.70;93.10;;;;;;5055408;28;20025;-70
2021/03/18 07:17:35;;;;;;;3.67;0.65;;;19.70;93.00;;;;;;5054044;28;20044;-71
2021/03/18 07:20:29;;;;;;;3.58;1.02;;;19.70;92.70;;;;;;5052794;28;20078;-70
2021/03/18 07:22:57;;;;;;;2.38;1.17;;;19.60;93.10;;;;;;5051434;28;20574;-71
2021/03/18 07:25:28;;;;;;;3.25;0.90;;;19.60;93.00;;;;;;5052670;28;20037;-73
2021/03/18 07:28:00;;;;;;;2.33;0.65;;;19.70;93.10;;;;;;5049766;28;20033;-71
2021/03/18 07:30:32;;;;;;;3.78;0.63;;;19.60;93.20;;;;;;5056315;28;20036;-70
2021/03/18 07:39:44;;;;;;;3.03;1.20;;;19.60;92.90;;;;;;5060524;28;20439;-72
2021/03/18 07:42:13;;;;;;;4.90;1.10;;;19.60;93.10;;;;;;5058043;28;20025;-72
2021/03/18 07:44:43;;;;;;;2.22;0.80;;;19.60;92.90;;;;;;5053621;28;20021;-72
2021/03/18 07:47:12;;;;;;;3.63;1.73;;;19.60;92.60;;;;;;5053363;28;20060;-71
2021/03/18 07:49:48;;;;;;;4.95;1.23;;;19.60;92.80;;;;;;5054662;28;20360;-73
2021/03/18 07:52:25;;;;;;;2.55;0.85;;;19.70;92.60;;;;;;5055726;28;20037;-72
2021/03/18 07:54:56;;;;;;;4.47;1.13;;;19.80;92.50;;;;;;5054206;28;20025;-70
2021/03/18 07:57:25;;;;;;;3.22;0.80;;;19.90;92.10;;;;;;5054713;28;20491;-70
2021/03/18 08:00:07;;;;;;;2.55;0.82;;;19.80;92.20;;;;;;5054544;28;20055;-73
2021/03/18 08:02:35;;;;;;;1.83;0.40;;;19.80;92.10;;;;;;5055601;28;20065;-71
2021/03/18 08:05:02;;;;;;;9.20;0.60;;;19.60;92.00;;;;;;5050926;28;20052;-72
2021/03/18 08:07:50;;;;;;;3.00;0.68;;;19.40;92.90;;;;;;5053245;28;20055;-68
2021/03/18 08:10:24;;;;;;;1.58;0.63;;;19.30;92.90;;;;;;5055930;28;20356;-72
2021/03/18 08:12:56;;;;;;;4.10;2.03;;;19.30;92.60;;;;;;5054458;28;20066;-70
2021/03/18 08:15:32;;;;;;;3.50;2.00;;;19.40;92.70;;;;;;5055090;28;20495;-70
2021/03/18 08:18:22;;;;;;;6.28;1.70;;;19.40;92.60;;;;;;5057385;28;20044;-70
2021/03/18 08:20:49;;;;;;;3.42;0.77;;;19.30;93.10;;;;;;5052929;28;20027;-73
2021/03/18 08:23:29;;;;;;;3.45;0.75;;;19.30;93.00;;;;;;5051174;28;21266;-70
2021/03/18 08:26:01;;;;;;;5.13;1.00;;;19.30;93.10;;;;;;5055808;28;20494;-74
2021/03/18 08:28:42;;;;;;;2.10;1.08;;;19.10;93.10;;;;;;5051894;28;20039;-70
2021/03/18 08:31:14;;;;;;;4.78;0.85;;;18.90;93.40;;;;;;5049785;28;20056;-72
2021/03/18 08:33:52;;;;;;;1.92;0.82;;;18.80;93.90;;;;;;5053490;28;20039;-70
2021/03/18 08:36:27;;;;;;;2.55;0.32;;;18.80;93.90;;;;;;5050758;28;20029;-71
2021/03/18 08:39:05;;;;;;;2.45;0.60;;;18.70;94.10;;;;;;5052563;28;20074;-69
2021/03/18 08:41:45;;;;;;;1.75;0.60;;;18.60;94.10;;;;;;5052108;28;20031;-69
2021/03/18 08:44:43;;;;;;;2.53;0.55;;;18.40;94.20;;;;;;5050893;28;20028;-71
2021/03/18 08:47:14;;;;;;;3.65;0.40;;;18.40;94.70;;;;;;5047604;28;20490;-74
2021/03/18 08:49:46;;;;;;;2.47;0.45;;;18.50;94.60;;;;;;5050982;28;20033;-70
2021/03/18 08:52:35;;;;;;;1.85;0.40;;;18.40;94.70;;;;;;5050707;28;20056;-70
2021/03/18 08:55:05;;;;;;;0.52;0.20;;;18.40;94.40;;;;;;5048876;28;20036;-69
2021/03/18 08:57:35;;;;;;;0.70;0.20;;;18.40;94.60;;;;;;5053111;28;20038;-71
2021/03/18 09:00:14;;;;;;;0.80;0.20;;;18.30;94.70;;;;;;5049062;28;20028;-68
2021/03/18 09:02:42;;;;;;;1.50;0.30;;;18.20;94.70;;;;;;5031031;28;20058;-70
2021/03/18 09:05:21;;;;;;;0.75;0.40;;;18.20;94.70;;;;;;5054432;28;20033;-69
2021/03/18 09:08:00;;;;;;;0.63;0.28;;;18.20;94.70;;;;;;5055582;28;20107;-71
2021/03/18 09:10:29;;;;;;;0.25;0.10;;;18.10;94.80;;;;;;5050140;28;20383;-72
2021/03/18 09:13:02;;;;;;;0.90;0.20;;;18.10;94.80;;;;;;5050556;28;20055;-72
2021/03/18 09:15:36;;;;;;;0.20;0.10;;;18.10;95.00;;;;;;5048867;28;20032;-69
2021/03/18 09:18:21;;;;;;;1.75;0.38;;;18.10;95.00;;;;;;5036951;28;20029;-70
2021/03/18 09:21:11;;;;;;;1.00;0.10;;;18.10;95.00;;;;;;5053182;28;20052;-71
2021/03/18 09:23:45;;;;;;;0.82;0.20;;;18.10;95.00;;;;;;5054043;28;20036;-71
2021/03/18 09:26:15;;;;;;;1.92;0.40;;;18.10;95.10;;;;;;5053920;28;20020;-72
2021/03/18 09:28:46;;;;;;;0.50;0.30;;;18.10;95.20;;;;;;5051141;28;20033;-75
2021/03/18 09:31:20;;;;;;;1.73;0.70;;;18.10;95.20;;;;;;5058440;28;20032;-69
2021/03/18 09:33:47;;;;;;;0.40;0.20;;;18.10;95.30;;;;;;5047716;28;20029;-72
2021/03/18 09:36:16;;;;;;;0.40;0.20;;;18.00;95.10;;;;;;5050709;28;20501;-70
2021/03/18 09:38:53;;;;;;;1.75;0.85;;;18.00;95.40;;;;;;5049299;28;20064;-71
2021/03/18 09:41:26;;;;;;;1.58;0.38;;;18.10;95.60;;;;;;5044483;28;20040;-70
2021/03/18 09:44:08;;;;;;;2.90;0.30;;;18.10;95.40;;;;;;5049930;28;20053;-69
2021/03/18 09:46:37;;;;;;;1.70;0.25;;;18.00;95.40;;;;;;5058999;28;20062;-73
2021/03/18 09:49:05;;;;;;;0.45;0.20;;;18.00;95.40;;;;;;5053465;28;20795;-69
2021/03/18 09:51:43;;;;;;;0.40;0.30;;;18.00;95.50;;;;;;5056616;28;20028;-69
2021/03/18 09:54:14;;;;;;;0.40;0.35;;;17.90;95.40;;;;;;5066801;28;20013;-72
2021/03/18 09:56:48;;;;;;;0.70;0.57;;;18.00;95.60;;;;;;5053514;28;20025;-71
2021/03/18 09:59:15;;;;;;;1.67;0.40;;;18.00;95.70;;;;;;5052183;28;20035;-68
2021/03/18 10:01:43;;;;;;;1.27;0.28;;;18.00;95.70;;;;;;5031698;28;20025;-69
2021/03/18 10:04:14;;;;;;;0.60;0.17;;;18.10;95.60;;;;;;5053604;28;20017;-69
2021/03/18 10:06:53;;;;;;;0.90;0.10;;;18.00;95.50;;;;;;5052439;28;20037;-69
2021/03/18 10:09:36;;;;;;;0.43;0.20;;;18.00;95.60;;;;;;5049870;28;20433;-67
2021/03/18 10:12:22;;;;;;;0.60;0.22;;;18.00;95.60;;;;;;5054434;28;20471;-69
2021/03/18 10:15:00;;;;;;;0.55;0.30;;;18.00;95.70;;;;;;5054228;28;20036;-68
2021/03/18 10:17:38;;;;;;;0.80;0.40;;;18.00;95.70;;;;;;5057405;28;20649;-68
2021/03/18 10:20:25;;;;;;;1.55;0.45;;;18.00;95.80;;;;;;5050930;28;20048;-70
2021/03/18 10:23:00;;;;;;;1.55;0.30;;;18.00;95.80;;;;;;5059417;28;20113;-68
2021/03/18 10:25:29;;;;;;;1.70;0.43;;;18.00;95.80;;;;;;5054519;28;20032;-69
2021/03/18 10:28:03;;;;;;;0.10;0.10;;;18.00;95.70;;;;;;5051418;28;20032;-69
2021/03/18 10:30:33;;;;;;;1.40;0.10;;;18.00;95.60;;;;;;5051621;28;20921;-71
2021/03/18 10:33:15;;;;;;;0.17;0.10;;;18.00;95.50;;;;;;5055183;28;20025;-70
2021/03/18 10:36:08;;;;;;;0.57;0.08;;;17.90;95.50;;;;;;5060675;28;20047;-69
2021/03/18 10:38:38;;;;;;;0.20;0.20;;;17.90;95.60;;;;;;5055134;28;20064;-69
2021/03/18 10:41:16;;;;;;;1.70;0.40;;;17.90;95.50;;;;;;5061443;28;20044;-70
2021/03/18 10:43:45;;;;;;;7.90;0.80;;;17.80;95.40;;;;;;5053699;28;20115;-70
2021/03/18 10:46:18;;;;;;;1.10;0.50;;;17.90;95.50;;;;;;5054965;28;20048;-71
2021/03/18 10:48:49;;;;;;;0.85;0.38;;;17.90;95.60;;;;;;5055013;28;20399;-70
2021/03/18 10:51:19;;;;;;;1.13;0.20;;;17.80;95.70;;;;;;5051886;28;20144;-69
2021/03/18 10:53:48;;;;;;;0.88;0.55;;;17.90;95.80;;;;;;5055793;28;20487;-71
2021/03/18 10:56:18;;;;;;;0.57;0.20;;;17.90;95.90;;;;;;5053835;28;20033;-70
2021/03/18 10:58:46;;;;;;;1.15;0.10;;;17.80;95.90;;;;;;5051341;28;20033;-69
2021/03/18 11:01:20;;;;;;;0.93;0.10;;;17.90;96.10;;;;;;5049926;28;20050;-69
2021/03/18 11:03:48;;;;;;;0.30;0.10;;;17.90;96.10;;;;;;5058443;28;20033;-69
2021/03/18 11:06:21;;;;;;;0.25;0.10;;;17.90;96.10;;;;;;5051212;28;20025;-68
2021/03/18 11:08:54;;;;;;;0.20;0.10;;;17.90;96.10;;;;;;5055882;28;20045;-68
2021/03/18 11:11:25;;;;;;;0.10;0.10;;;17.90;96.30;;;;;;5056887;28;20123;-69
2021/03/18 11:14:13;;;;;;;0.20;0.10;;;17.90;96.20;;;;;;5049825;28;20025;-69
2021/03/18 11:16:41;;;;;;;0.82;0.10;;;17.90;96.30;;;;;;5050763;28;20049;-69
2021/03/18 11:19:11;;;;;;;1.30;0.22;;;17.90;96.30;;;;;;5054127;28;20498;-71
2021/03/18 11:21:41;;;;;;;2.35;0.38;;;17.90;96.30;;;;;;5054676;28;20040;-71
2021/03/18 11:24:17;;;;;;;0.25;0.15;;;17.90;96.30;;;;;;5049915;28;20014;-71
2021/03/18 11:26:57;;;;;;;0.32;0.00;;;17.90;96.30;;;;;;5050591;28;20109;-71
2021/03/18 11:29:33;;;;;;;1.55;0.10;;;17.90;96.30;;;;;;5052296;28;20093;-69
2021/03/18 11:32:04;;;;;;;0.43;0.20;;;17.90;96.60;;;;;;5050904;28;20025;-71
2021/03/18 11:34:34;;;;;;;0.00;0.00;;;17.90;96.30;;;;;;5054796;28;20021;-72
2021/03/18 11:37:07;;;;;;;0.85;0.00;;;17.90;96.40;;;;;;5054590;28;20052;-70
2021/03/18 11:39:35;;;;;;;0.08;0.08;;;17.90;96.30;;;;;;5056512;28;20028;-69
2021/03/18 11:42:03;;;;;;;0.65;0.08;;;17.90;96.30;;;;;;5051628;28;20055;-70
2021/03/18 11:44:31;;;;;;;0.00;0.00;;;17.90;96.40;;;;;;5049191;28;20017;-68
2021/03/18 11:47:05;;;;;;;0.00;0.00;;;17.80;96.40;;;;;;5055985;28;20037;-70
2021/03/18 11:49:33;;;;;;;0.90;0.10;;;17.90;96.50;;;;;;5056191;28;20016;-72
2021/03/18 11:52:00;;;;;;;0.30;0.20;;;17.90;96.50;;;;;;5054150;28;21314;-70
2021/03/18 11:54:28;;;;;;;0.10;0.10;;;17.90;96.40;;;;;;5052979;28;20762;-69
2021/03/18 11:56:55;;;;;;;0.98;0.32;;;17.80;96.50;;;;;;5057761;28;20040;-71
2021/03/18 11:59:23;;;;;;;1.30;0.20;;;17.90;96.60;;;;;;5050921;28;20377;-68
2021/03/18 12:01:51;;;;;;;2.05;0.30;;;17.90;96.50;;;;;;5053824;28;20032;-68
2021/03/18 12:04:18;;;;;;;3.60;0.52;;;17.90;96.60;;;;;;5032682;28;20048;-71
2021/03/18 12:06:46;;;;;;;4.72;0.63;;;18.10;96.80;;;;;;5053029;28;20032;-70
2021/03/18 12:09:14;;;;;;;3.08;0.47;;;18.20;96.70;;;;;;5054409;28;20530;-71
2021/03/18 12:11:42;;;;;;;4.10;1.05;;;18.30;96.70;;;;;;5054020;28;20414;-70
2021/03/18 12:14:10;;;;;;;3.03;0.30;;;18.30;96.60;;;;;;5052831;28;20016;-72
2021/03/18 12:16:37;;;;;;;2.72;0.68;;;18.30;96.50;;;;;;5064751;28;20040;-71
2021/03/18 12:19:04;;;;;;;2.92;0.40;;;18.30;96.50;;;;;;5058304;28;20048;-70
2021/03/18 12:21:32;;;;;;;1.48;0.30;;;18.30;96.70;;;;;;5057671;28;20077;-70
2021/03/18 12:23:59;;;;;;;1.88;0.63;;;18.30;96.50;;;;;;5056878;28;20036;-70
2021/03/18 12:26:27;;;;;;;2.25;0.57;;;18.30;96.50;;;;;;5055060;28;20053;-72
2021/03/18 12:28:54;;;;;;;3.28;0.50;;;18.30;96.60;;;;;;5056624;28;20036;-70
2021/03/18 12:31:21;;;;;;;4.25;1.13;;;18.30;96.50;;;;;;5054984;28;20040;-71
2021/03/18 12:33:48;;;;;;;4.47;0.90;;;18.30;96.50;;;;;;5055694;28;20483;-70
2021/03/18 12:36:17;;;;;;;4.60;1.23;;;18.30;96.50;;;;;;5061254;28;20041;-70
2021/03/18 12:38:44;;;;;;;6.85;1.17;;;18.30;96.60;;;;;;5067614;28;20120;-72
2021/03/18 12:41:12;;;;;;;2.90;0.65;;;18.30;96.60;;;;;;5057359;28;20099;-69
2021/03/18 12:43:39;;;;;;;4.82;0.75;;;18.40;96.70;;;;;;5054224;28;20035;-72
2021/03/18 12:46:07;;;;;;;3.47;0.80;;;18.40;96.70;;;;;;5053550;28;20028;-73
2021/03/18 12:48:34;;;;;;;5.22;1.05;;;18.40;96.60;;;;;;5060921;28;20036;-73
2021/03/18 12:51:02;;;;;;;3.75;1.00;;;18.40;96.70;;;;;;5057597;28;20052;-71
2021/03/18 12:53:29;;;;;;;6.78;1.55;;;18.50;96.70;;;;;;5060281;28;20079;-70
2021/03/18 12:55:58;;;;;;;11.20;3.10;;;18.50;96.70;;;;;;5054278;28;20154;-70
2021/03/18 12:58:27;;;;;;;9.65;1.80;;;18.70;96.70;;;;;;5060788;28;20059;-69
2021/03/18 13:00:54;;;;;;;20.83;3.85;;;18.80;96.60;;;;;;5059268;28;20086;-69
2021/03/18 13:03:21;;;;;;;15.73;2.80;;;18.90;96.50;;;;;;5058109;28;20039;-73
2021/03/18 13:05:49;;;;;;;17.55;3.38;;;19.00;96.40;;;;;;5055866;28;20499;-68
2021/03/18 13:08:16;;;;;;;19.38;3.03;;;19.10;96.30;;;;;;5056276;28;20029;-73
2021/03/18 13:10:44;;;;;;;16.40;3.00;;;19.10;96.30;;;;;;5058068;28;20505;-70
2021/03/18 13:13:11;;;;;;;17.38;3.10;;;19.10;96.20;;;;;;5056207;28;20029;-70
2021/03/18 13:15:39;;;;;;;16.90;2.90;;;19.20;96.20;;;;;;5039671;28;20037;-70
2021/03/18 13:18:06;;;;;;;23.15;3.70;;;19.20;96.10;;;;;;5065967;28;20119;-72